sensor_id;sensor_type;location;lat;lon;timestamp;P1;durP1;ratioP1;P2;durP2;ratioP2
23506;SDS011;11930;53.076;18.250;2024-01-30T00:00:07;33.50;;;14.07;;
23506;SDS011;11930;53.076;18.250;2024-01-30T00:02:34;29.03;;;14.03;;
23506;SDS011;11930;53.076;18.250;2024-01-30T00:05:00;29.73;;;14.53;;
23506;SDS011;11930;53.076;18.250;2024-01-30T00:07:26;50.53;;;20.57;;
23506;SDS011;11930;53.076;18.250;2024-01-30T00:09:54;47.23;;;20.20;;
23506;SDS011;11930;53.076;18.250;2024-01-30T00:12:20;44.10;;;19.50;;
23506;SDS011;11930;53.076;18.250;2024-01-30T00:14:47;38.23;;;16.27;;
23506;SDS011;11930;53.076;18.250;2024-01-30T00:17:14;39.13;;;18.10;;
23506;SDS011;11930;53.076;18.250;2024-01-30T00:19:40;36.40;;;17.23;;
23506;SDS011;11930;53.076;18.250;2024-01-30T00:22:06;32.47;;;14.97;;
23506;SDS011;11930;53.076;18.250;2024-01-30T00:24:33;39.13;;;16.87;;
23506;SDS011;11930;53.076;18.250;2024-01-30T00:26:59;31.70;;;14.23;;
23506;SDS011;11930;53.076;18.250;2024-01-30T00:29:25;34.77;;;16.47;;
23506;SDS011;11930;53.076;18.250;2024-01-30T00:31:56;31.17;;;14.33;;
23506;SDS011;11930;53.076;18.250;2024-01-30T00:34:22;30.90;;;14.10;;
23506;SDS011;11930;53.076;18.250;2024-01-30T00:36:48;28.00;;;13.93;;
23506;SDS011;11930;53.076;18.250;2024-01-30T00:39:14;31.33;;;13.87;;
23506;SDS011;11930;53.076;18.250;2024-01-30T00:41:41;32.50;;;14.70;;
23506;SDS011;11930;53.076;18.250;2024-01-30T00:44:07;37.90;;;15.47;;
23506;SDS011;11930;53.076;18.250;2024-01-30T00:46:34;29.90;;;13.37;;
23506;SDS011;11930;53.076;18.250;2024-01-30T00:49:00;30.77;;;13.87;;
23506;SDS011;11930;53.076;18.250;2024-01-30T00:51:26;30.20;;;13.90;;
23506;SDS011;11930;53.076;18.250;2024-01-30T00:53:54;29.17;;;13.63;;
23506;SDS011;11930;53.076;18.250;2024-01-30T00:56:20;27.67;;;13.43;;
23506;SDS011;11930;53.076;18.250;2024-01-30T00:58:46;30.83;;;13.17;;
23506;SDS011;11930;53.076;18.250;2024-01-30T01:01:12;29.90;;;14.43;;
23506;SDS011;11930;53.076;18.250;2024-01-30T01:03:40;31.97;;;13.00;;
23506;SDS011;11930;53.076;18.250;2024-01-30T01:06:07;32.17;;;14.97;;
23506;SDS011;11930;53.076;18.250;2024-01-30T01:08:33;31.97;;;13.27;;
23506;SDS011;11930;53.076;18.250;2024-01-30T01:10:59;26.90;;;13.00;;
23506;SDS011;11930;53.076;18.250;2024-01-30T01:13:25;32.90;;;13.77;;
23506;SDS011;11930;53.076;18.250;2024-01-30T01:15:52;27.77;;;12.20;;
23506;SDS011;11930;53.076;18.250;2024-01-30T01:18:18;32.77;;;13.50;;
23506;SDS011;11930;53.076;18.250;2024-01-30T01:20:44;33.20;;;13.57;;
23506;SDS011;11930;53.076;18.250;2024-01-30T01:23:10;30.80;;;13.27;;
23506;SDS011;11930;53.076;18.250;2024-01-30T01:25:36;29.37;;;13.40;;
23506;SDS011;11930;53.076;18.250;2024-01-30T01:28:02;30.53;;;14.10;;
23506;SDS011;11930;53.076;18.250;2024-01-30T01:30:29;28.40;;;13.53;;
23506;SDS011;11930;53.076;18.250;2024-01-30T01:32:55;28.40;;;12.87;;
23506;SDS011;11930;53.076;18.250;2024-01-30T01:35:23;27.27;;;11.93;;
23506;SDS011;11930;53.076;18.250;2024-01-30T01:37:53;28.43;;;12.37;;
23506;SDS011;11930;53.076;18.250;2024-01-30T01:40:25;30.87;;;13.33;;
23506;SDS011;11930;53.076;18.250;2024-01-30T01:42:52;31.50;;;13.13;;
23506;SDS011;11930;53.076;18.250;2024-01-30T01:45:20;37.13;;;14.37;;
23506;SDS011;11930;53.076;18.250;2024-01-30T01:47:47;33.23;;;14.53;;
23506;SDS011;11930;53.076;18.250;2024-01-30T01:50:17;29.83;;;13.17;;
23506;SDS011;11930;53.076;18.250;2024-01-30T01:52:48;29.67;;;13.90;;
23506;SDS011;11930;53.076;18.250;2024-01-30T01:55:15;35.70;;;14.33;;
23506;SDS011;11930;53.076;18.250;2024-01-30T01:57:44;29.10;;;14.67;;
23506;SDS011;11930;53.076;18.250;2024-01-30T02:00:12;31.23;;;14.53;;
23506;SDS011;11930;53.076;18.250;2024-01-30T02:02:39;34.90;;;14.40;;
23506;SDS011;11930;53.076;18.250;2024-01-30T02:05:05;31.37;;;13.77;;
23506;SDS011;11930;53.076;18.250;2024-01-30T02:07:32;27.20;;;13.07;;
23506;SDS011;11930;53.076;18.250;2024-01-30T02:09:58;29.47;;;13.77;;
23506;SDS011;11930;53.076;18.250;2024-01-30T02:12:24;31.67;;;13.60;;
23506;SDS011;11930;53.076;18.250;2024-01-30T02:14:51;30.50;;;13.67;;
23506;SDS011;11930;53.076;18.250;2024-01-30T02:17:17;30.43;;;12.83;;
23506;SDS011;11930;53.076;18.250;2024-01-30T02:19:44;32.33;;;14.30;;
23506;SDS011;11930;53.076;18.250;2024-01-30T02:22:10;31.97;;;13.80;;
23506;SDS011;11930;53.076;18.250;2024-01-30T02:24:36;27.43;;;13.37;;
23506;SDS011;11930;53.076;18.250;2024-01-30T02:27:02;32.27;;;13.37;;
23506;SDS011;11930;53.076;18.250;2024-01-30T02:29:29;29.10;;;13.17;;
23506;SDS011;11930;53.076;18.250;2024-01-30T02:31:55;29.47;;;13.10;;
23506;SDS011;11930;53.076;18.250;2024-01-30T02:34:21;32.60;;;13.87;;
23506;SDS011;11930;53.076;18.250;2024-01-30T02:36:49;31.93;;;13.33;;
23506;SDS011;11930;53.076;18.250;2024-01-30T02:39:15;33.10;;;13.63;;
23506;SDS011;11930;53.076;18.250;2024-01-30T02:41:41;28.70;;;12.90;;
23506;SDS011;11930;53.076;18.250;2024-01-30T02:44:07;30.03;;;13.53;;
23506;SDS011;11930;53.076;18.250;2024-01-30T02:46:33;28.47;;;14.03;;
23506;SDS011;11930;53.076;18.250;2024-01-30T02:48:59;32.93;;;13.87;;
23506;SDS011;11930;53.076;18.250;2024-01-30T02:51:25;30.70;;;13.63;;
23506;SDS011;11930;53.076;18.250;2024-01-30T02:53:52;30.37;;;13.83;;
23506;SDS011;11930;53.076;18.250;2024-01-30T02:56:18;28.60;;;13.30;;
23506;SDS011;11930;53.076;18.250;2024-01-30T02:58:44;28.73;;;13.33;;
23506;SDS011;11930;53.076;18.250;2024-01-30T03:01:10;29.90;;;13.10;;
23506;SDS011;11930;53.076;18.250;2024-01-30T03:03:36;28.00;;;12.87;;
23506;SDS011;11930;53.076;18.250;2024-01-30T03:06:03;27.03;;;12.63;;
23506;SDS011;11930;53.076;18.250;2024-01-30T03:08:29;28.97;;;13.47;;
23506;SDS011;11930;53.076;18.250;2024-01-30T03:10:55;29.00;;;13.40;;
23506;SDS011;11930;53.076;18.250;2024-01-30T03:13:21;29.37;;;13.07;;
23506;SDS011;11930;53.076;18.250;2024-01-30T03:15:50;29.67;;;13.30;;
23506;SDS011;11930;53.076;18.250;2024-01-30T03:18:16;30.63;;;13.60;;
23506;SDS011;11930;53.076;18.250;2024-01-30T03:20:43;27.00;;;12.83;;
23506;SDS011;11930;53.076;18.250;2024-01-30T03:23:09;31.20;;;13.33;;
23506;SDS011;11930;53.076;18.250;2024-01-30T03:25:35;28.37;;;12.77;;
23506;SDS011;11930;53.076;18.250;2024-01-30T03:28:02;32.10;;;14.60;;
23506;SDS011;11930;53.076;18.250;2024-01-30T03:30:28;28.80;;;12.97;;
23506;SDS011;11930;53.076;18.250;2024-01-30T03:32:54;30.67;;;12.13;;
23506;SDS011;11930;53.076;18.250;2024-01-30T03:35:20;27.77;;;13.00;;
23506;SDS011;11930;53.076;18.250;2024-01-30T03:37:46;30.63;;;13.20;;
23506;SDS011;11930;53.076;18.250;2024-01-30T03:40:12;28.10;;;12.90;;
23506;SDS011;11930;53.076;18.250;2024-01-30T03:42:39;28.43;;;12.87;;
23506;SDS011;11930;53.076;18.250;2024-01-30T03:45:05;27.20;;;12.80;;
23506;SDS011;11930;53.076;18.250;2024-01-30T03:47:32;30.70;;;13.37;;
23506;SDS011;11930;53.076;18.250;2024-01-30T03:49:58;31.40;;;13.63;;
23506;SDS011;11930;53.076;18.250;2024-01-30T03:52:24;31.13;;;12.97;;
23506;SDS011;11930;53.076;18.250;2024-01-30T03:54:50;30.43;;;13.73;;
23506;SDS011;11930;53.076;18.250;2024-01-30T03:57:17;30.50;;;13.30;;
23506;SDS011;11930;53.076;18.250;2024-01-30T03:59:43;33.23;;;14.00;;
23506;SDS011;11930;53.076;18.250;2024-01-30T04:02:10;36.80;;;14.37;;
23506;SDS011;11930;53.076;18.250;2024-01-30T04:04:37;34.43;;;14.57;;
23506;SDS011;11930;53.076;18.250;2024-01-30T04:07:03;31.30;;;14.53;;
23506;SDS011;11930;53.076;18.250;2024-01-30T04:09:29;31.20;;;14.27;;
23506;SDS011;11930;53.076;18.250;2024-01-30T04:11:56;29.27;;;13.27;;
23506;SDS011;11930;53.076;18.250;2024-01-30T04:14:22;30.67;;;12.93;;
23506;SDS011;11930;53.076;18.250;2024-01-30T04:16:48;29.23;;;12.33;;
23506;SDS011;11930;53.076;18.250;2024-01-30T04:19:14;30.67;;;13.27;;
23506;SDS011;11930;53.076;18.250;2024-01-30T04:21:40;29.23;;;13.70;;
23506;SDS011;11930;53.076;18.250;2024-01-30T04:24:07;29.27;;;13.63;;
23506;SDS011;11930;53.076;18.250;2024-01-30T04:26:33;31.93;;;14.20;;
23506;SDS011;11930;53.076;18.250;2024-01-30T04:28:59;31.63;;;14.37;;
23506;SDS011;11930;53.076;18.250;2024-01-30T04:31:25;32.17;;;14.47;;
23506;SDS011;11930;53.076;18.250;2024-01-30T04:33:51;26.80;;;13.43;;
23506;SDS011;11930;53.076;18.250;2024-01-30T04:36:17;32.53;;;14.10;;
23506;SDS011;11930;53.076;18.250;2024-01-30T04:38:44;32.67;;;14.47;;
23506;SDS011;11930;53.076;18.250;2024-01-30T04:41:10;29.43;;;13.57;;
23506;SDS011;11930;53.076;18.250;2024-01-30T04:43:36;30.27;;;14.40;;
23506;SDS011;11930;53.076;18.250;2024-01-30T04:46:02;29.57;;;13.90;;
23506;SDS011;11930;53.076;18.250;2024-01-30T04:48:29;28.67;;;13.40;;
23506;SDS011;11930;53.076;18.250;2024-01-30T04:50:56;28.23;;;13.40;;
23506;SDS011;11930;53.076;18.250;2024-01-30T04:53:22;31.37;;;13.63;;
23506;SDS011;11930;53.076;18.250;2024-01-30T04:55:48;31.07;;;13.90;;
23506;SDS011;11930;53.076;18.250;2024-01-30T04:58:14;30.70;;;13.93;;
23506;SDS011;11930;53.076;18.250;2024-01-30T05:00:40;32.30;;;13.13;;
23506;SDS011;11930;53.076;18.250;2024-01-30T05:03:07;25.77;;;13.10;;
23506;SDS011;11930;53.076;18.250;2024-01-30T05:05:33;30.43;;;14.30;;
23506;SDS011;11930;53.076;18.250;2024-01-30T05:07:59;32.57;;;14.27;;
23506;SDS011;11930;53.076;18.250;2024-01-30T05:10:26;34.20;;;13.73;;
23506;SDS011;11930;53.076;18.250;2024-01-30T05:12:54;33.70;;;14.17;;
23506;SDS011;11930;53.076;18.250;2024-01-30T05:15:20;33.73;;;14.07;;
23506;SDS011;11930;53.076;18.250;2024-01-30T05:17:46;28.90;;;14.10;;
23506;SDS011;11930;53.076;18.250;2024-01-30T05:20:12;31.73;;;14.10;;
23506;SDS011;11930;53.076;18.250;2024-01-30T05:22:39;28.67;;;13.73;;
23506;SDS011;11930;53.076;18.250;2024-01-30T05:25:10;32.30;;;14.03;;
23506;SDS011;11930;53.076;18.250;2024-01-30T05:27:38;30.53;;;14.13;;
23506;SDS011;11930;53.076;18.250;2024-01-30T05:30:05;30.30;;;14.13;;
23506;SDS011;11930;53.076;18.250;2024-01-30T05:32:32;28.33;;;13.50;;
23506;SDS011;11930;53.076;18.250;2024-01-30T05:34:58;32.40;;;14.67;;
23506;SDS011;11930;53.076;18.250;2024-01-30T05:37:25;32.10;;;14.57;;
23506;SDS011;11930;53.076;18.250;2024-01-30T05:39:51;34.13;;;14.70;;
23506;SDS011;11930;53.076;18.250;2024-01-30T05:42:17;29.33;;;13.53;;
23506;SDS011;11930;53.076;18.250;2024-01-30T05:44:43;30.53;;;13.63;;
23506;SDS011;11930;53.076;18.250;2024-01-30T05:47:10;31.97;;;14.43;;
23506;SDS011;11930;53.076;18.250;2024-01-30T05:49:36;30.83;;;14.30;;
23506;SDS011;11930;53.076;18.250;2024-01-30T05:52:03;30.33;;;13.57;;
23506;SDS011;11930;53.076;18.250;2024-01-30T05:54:29;31.37;;;13.70;;
23506;SDS011;11930;53.076;18.250;2024-01-30T05:56:55;30.70;;;13.93;;
23506;SDS011;11930;53.076;18.250;2024-01-30T05:59:21;28.20;;;12.83;;
23506;SDS011;11930;53.076;18.250;2024-01-30T06:01:48;30.97;;;13.20;;
23506;SDS011;11930;53.076;18.250;2024-01-30T06:04:14;26.23;;;12.87;;
23506;SDS011;11930;53.076;18.250;2024-01-30T06:06:41;30.37;;;14.27;;
23506;SDS011;11930;53.076;18.250;2024-01-30T06:09:07;30.77;;;13.33;;
23506;SDS011;11930;53.076;18.250;2024-01-30T06:11:36;27.23;;;12.97;;
23506;SDS011;11930;53.076;18.250;2024-01-30T06:14:02;29.63;;;13.87;;
23506;SDS011;11930;53.076;18.250;2024-01-30T06:16:28;25.57;;;12.77;;
23506;SDS011;11930;53.076;18.250;2024-01-30T06:18:55;29.50;;;13.27;;
23506;SDS011;11930;53.076;18.250;2024-01-30T06:21:22;26.73;;;13.30;;
23506;SDS011;11930;53.076;18.250;2024-01-30T06:23:48;30.63;;;14.07;;
23506;SDS011;11930;53.076;18.250;2024-01-30T06:26:15;32.80;;;14.47;;
23506;SDS011;11930;53.076;18.250;2024-01-30T06:28:41;32.80;;;13.83;;
23506;SDS011;11930;53.076;18.250;2024-01-30T06:31:07;27.53;;;13.77;;
23506;SDS011;11930;53.076;18.250;2024-01-30T06:33:34;32.63;;;13.93;;
23506;SDS011;11930;53.076;18.250;2024-01-30T06:36:00;31.43;;;13.60;;
23506;SDS011;11930;53.076;18.250;2024-01-30T06:38:26;28.53;;;13.43;;
23506;SDS011;11930;53.076;18.250;2024-01-30T06:40:52;31.07;;;14.60;;
23506;SDS011;11930;53.076;18.250;2024-01-30T06:43:19;29.37;;;13.50;;
23506;SDS011;11930;53.076;18.250;2024-01-30T06:45:45;36.27;;;16.43;;
23506;SDS011;11930;53.076;18.250;2024-01-30T06:48:11;35.97;;;15.23;;
23506;SDS011;11930;53.076;18.250;2024-01-30T06:50:38;29.23;;;14.10;;
23506;SDS011;11930;53.076;18.250;2024-01-30T06:53:04;29.63;;;13.30;;
23506;SDS011;11930;53.076;18.250;2024-01-30T06:55:30;32.93;;;14.07;;
23506;SDS011;11930;53.076;18.250;2024-01-30T06:57:56;29.53;;;13.23;;
23506;SDS011;11930;53.076;18.250;2024-01-30T07:00:22;30.07;;;12.90;;
23506;SDS011;11930;53.076;18.250;2024-01-30T07:02:48;27.00;;;13.23;;
23506;SDS011;11930;53.076;18.250;2024-01-30T07:05:15;25.83;;;13.00;;
23506;SDS011;11930;53.076;18.250;2024-01-30T07:07:42;26.57;;;13.17;;
23506;SDS011;11930;53.076;18.250;2024-01-30T07:10:09;25.53;;;12.97;;
23506;SDS011;11930;53.076;18.250;2024-01-30T07:12:35;27.97;;;12.50;;
23506;SDS011;11930;53.076;18.250;2024-01-30T07:15:01;29.47;;;13.63;;
23506;SDS011;11930;53.076;18.250;2024-01-30T07:17:28;29.27;;;13.90;;
23506;SDS011;11930;53.076;18.250;2024-01-30T07:19:55;31.07;;;14.73;;
23506;SDS011;11930;53.076;18.250;2024-01-30T07:22:21;26.67;;;12.93;;
23506;SDS011;11930;53.076;18.250;2024-01-30T07:24:47;31.97;;;13.77;;
23506;SDS011;11930;53.076;18.250;2024-01-30T07:27:14;26.67;;;12.60;;
23506;SDS011;11930;53.076;18.250;2024-01-30T07:29:43;27.73;;;12.90;;
23506;SDS011;11930;53.076;18.250;2024-01-30T07:32:09;29.20;;;13.60;;
23506;SDS011;11930;53.076;18.250;2024-01-30T07:34:35;27.77;;;12.40;;
23506;SDS011;11930;53.076;18.250;2024-01-30T07:37:02;28.27;;;13.93;;
23506;SDS011;11930;53.076;18.250;2024-01-30T07:39:28;27.10;;;12.43;;
23506;SDS011;11930;53.076;18.250;2024-01-30T07:41:54;24.57;;;12.17;;
23506;SDS011;11930;53.076;18.250;2024-01-30T07:44:20;24.80;;;13.00;;
23506;SDS011;11930;53.076;18.250;2024-01-30T07:46:47;28.33;;;12.50;;
23506;SDS011;11930;53.076;18.250;2024-01-30T07:49:13;29.40;;;12.37;;
23506;SDS011;11930;53.076;18.250;2024-01-30T07:51:39;28.20;;;12.43;;
23506;SDS011;11930;53.076;18.250;2024-01-30T07:54:06;27.07;;;12.60;;
23506;SDS011;11930;53.076;18.250;2024-01-30T07:56:32;28.00;;;12.77;;
23506;SDS011;11930;53.076;18.250;2024-01-30T07:58:58;26.90;;;12.77;;
23506;SDS011;11930;53.076;18.250;2024-01-30T08:01:24;26.93;;;12.93;;
23506;SDS011;11930;53.076;18.250;2024-01-30T08:03:50;25.97;;;12.53;;
23506;SDS011;11930;53.076;18.250;2024-01-30T08:06:16;27.93;;;12.93;;
23506;SDS011;11930;53.076;18.250;2024-01-30T08:08:43;26.90;;;13.10;;
23506;SDS011;11930;53.076;18.250;2024-01-30T08:11:09;26.67;;;12.30;;
23506;SDS011;11930;53.076;18.250;2024-01-30T08:13:35;25.43;;;13.33;;
23506;SDS011;11930;53.076;18.250;2024-01-30T08:16:01;27.03;;;11.77;;
23506;SDS011;11930;53.076;18.250;2024-01-30T08:18:28;25.70;;;12.60;;
23506;SDS011;11930;53.076;18.250;2024-01-30T08:20:53;28.80;;;13.40;;
23506;SDS011;11930;53.076;18.250;2024-01-30T08:23:20;25.33;;;12.47;;
23506;SDS011;11930;53.076;18.250;2024-01-30T08:25:46;25.00;;;11.90;;
23506;SDS011;11930;53.076;18.250;2024-01-30T08:28:12;28.63;;;13.70;;
23506;SDS011;11930;53.076;18.250;2024-01-30T08:30:38;29.97;;;16.97;;
23506;SDS011;11930;53.076;18.250;2024-01-30T08:33:05;22.37;;;12.60;;
23506;SDS011;11930;53.076;18.250;2024-01-30T08:35:32;23.23;;;12.07;;
23506;SDS011;11930;53.076;18.250;2024-01-30T08:37:59;27.10;;;12.77;;
23506;SDS011;11930;53.076;18.250;2024-01-30T08:40:25;27.60;;;12.27;;
23506;SDS011;11930;53.076;18.250;2024-01-30T08:42:51;25.97;;;12.50;;
23506;SDS011;11930;53.076;18.250;2024-01-30T08:45:18;25.50;;;13.07;;
23506;SDS011;11930;53.076;18.250;2024-01-30T08:47:44;23.37;;;11.40;;
23506;SDS011;11930;53.076;18.250;2024-01-30T08:50:10;24.00;;;12.57;;
23506;SDS011;11930;53.076;18.250;2024-01-30T08:52:37;27.53;;;13.23;;
23506;SDS011;11930;53.076;18.250;2024-01-30T08:55:03;25.80;;;12.87;;
23506;SDS011;11930;53.076;18.250;2024-01-30T08:57:30;24.07;;;12.20;;
23506;SDS011;11930;53.076;18.250;2024-01-30T08:59:56;28.93;;;13.50;;
23506;SDS011;11930;53.076;18.250;2024-01-30T09:02:22;30.20;;;15.40;;
23506;SDS011;11930;53.076;18.250;2024-01-30T09:04:48;23.87;;;12.27;;
23506;SDS011;11930;53.076;18.250;2024-01-30T09:07:15;26.60;;;13.37;;
23506;SDS011;11930;53.076;18.250;2024-01-30T09:09:41;28.63;;;13.70;;
23506;SDS011;11930;53.076;18.250;2024-01-30T09:12:07;24.53;;;12.23;;
23506;SDS011;11930;53.076;18.250;2024-01-30T09:14:37;29.83;;;13.50;;
23506;SDS011;11930;53.076;18.250;2024-01-30T09:17:05;24.80;;;11.97;;
23506;SDS011;11930;53.076;18.250;2024-01-30T09:19:31;20.23;;;11.13;;
23506;SDS011;11930;53.076;18.250;2024-01-30T09:21:57;22.17;;;11.63;;
23506;SDS011;11930;53.076;18.250;2024-01-30T09:24:23;24.73;;;12.53;;
23506;SDS011;11930;53.076;18.250;2024-01-30T09:26:50;22.47;;;11.87;;
23506;SDS011;11930;53.076;18.250;2024-01-30T09:29:16;26.13;;;12.30;;
23506;SDS011;11930;53.076;18.250;2024-01-30T09:31:45;26.13;;;12.53;;
23506;SDS011;11930;53.076;18.250;2024-01-30T09:34:11;26.47;;;14.33;;
23506;SDS011;11930;53.076;18.250;2024-01-30T09:36:39;24.80;;;11.93;;
23506;SDS011;11930;53.076;18.250;2024-01-30T09:39:05;22.63;;;10.97;;
23506;SDS011;11930;53.076;18.250;2024-01-30T09:41:32;22.77;;;11.53;;
23506;SDS011;11930;53.076;18.250;2024-01-30T09:44:01;22.63;;;10.83;;
23506;SDS011;11930;53.076;18.250;2024-01-30T09:46:29;23.10;;;11.50;;
23506;SDS011;11930;53.076;18.250;2024-01-30T09:48:57;25.30;;;13.30;;
23506;SDS011;11930;53.076;18.250;2024-01-30T09:51:24;23.60;;;13.20;;
23506;SDS011;11930;53.076;18.250;2024-01-30T09:53:52;24.50;;;12.43;;
23506;SDS011;11930;53.076;18.250;2024-01-30T09:56:19;25.33;;;13.50;;
23506;SDS011;11930;53.076;18.250;2024-01-30T09:58:46;26.03;;;11.90;;
23506;SDS011;11930;53.076;18.250;2024-01-30T10:01:14;30.27;;;13.47;;
23506;SDS011;11930;53.076;18.250;2024-01-30T10:03:44;25.33;;;12.93;;
23506;SDS011;11930;53.076;18.250;2024-01-30T10:06:11;25.03;;;12.07;;
23506;SDS011;11930;53.076;18.250;2024-01-30T10:08:37;21.87;;;11.83;;
23506;SDS011;11930;53.076;18.250;2024-01-30T10:11:03;22.97;;;12.33;;
23506;SDS011;11930;53.076;18.250;2024-01-30T10:13:29;20.47;;;11.20;;
23506;SDS011;11930;53.076;18.250;2024-01-30T10:15:56;22.60;;;11.27;;
23506;SDS011;11930;53.076;18.250;2024-01-30T10:18:23;19.93;;;10.90;;
23506;SDS011;11930;53.076;18.250;2024-01-30T10:20:50;22.63;;;11.57;;
23506;SDS011;11930;53.076;18.250;2024-01-30T10:23:17;26.17;;;14.23;;
23506;SDS011;11930;53.076;18.250;2024-01-30T10:25:44;24.13;;;11.47;;
23506;SDS011;11930;53.076;18.250;2024-01-30T10:28:11;23.93;;;10.97;;
23506;SDS011;11930;53.076;18.250;2024-01-30T10:30:37;21.40;;;10.53;;
23506;SDS011;11930;53.076;18.250;2024-01-30T10:33:03;19.40;;;11.13;;
23506;SDS011;11930;53.076;18.250;2024-01-30T10:35:30;17.63;;;10.30;;
23506;SDS011;11930;53.076;18.250;2024-01-30T10:37:56;18.47;;;9.50;;
23506;SDS011;11930;53.076;18.250;2024-01-30T10:40:27;20.93;;;11.63;;
23506;SDS011;11930;53.076;18.250;2024-01-30T10:42:54;17.90;;;9.80;;
23506;SDS011;11930;53.076;18.250;2024-01-30T10:45:24;18.40;;;10.00;;
23506;SDS011;11930;53.076;18.250;2024-01-30T10:47:54;17.23;;;9.70;;
23506;SDS011;11930;53.076;18.250;2024-01-30T10:50:26;17.60;;;10.00;;
23506;SDS011;11930;53.076;18.250;2024-01-30T10:52:54;18.13;;;9.40;;
23506;SDS011;11930;53.076;18.250;2024-01-30T10:55:21;19.37;;;10.10;;
23506;SDS011;11930;53.076;18.250;2024-01-30T10:57:50;20.87;;;9.93;;
23506;SDS011;11930;53.076;18.250;2024-01-30T11:00:17;22.37;;;11.43;;
23506;SDS011;11930;53.076;18.250;2024-01-30T11:02:48;24.43;;;11.67;;
23506;SDS011;11930;53.076;18.250;2024-01-30T11:05:14;19.73;;;10.50;;
23506;SDS011;11930;53.076;18.250;2024-01-30T11:07:50;21.50;;;10.03;;
23506;SDS011;11930;53.076;18.250;2024-01-30T11:10:17;17.80;;;9.73;;
23506;SDS011;11930;53.076;18.250;2024-01-30T11:12:43;23.80;;;12.77;;
23506;SDS011;11930;53.076;18.250;2024-01-30T11:15:12;19.70;;;11.33;;
23506;SDS011;11930;53.076;18.250;2024-01-30T11:20:27;19.77;;;9.93;;
23506;SDS011;11930;53.076;18.250;2024-01-30T11:23:01;21.90;;;10.30;;
23506;SDS011;11930;53.076;18.250;2024-01-30T11:25:31;18.27;;;9.67;;
23506;SDS011;11930;53.076;18.250;2024-01-30T11:27:58;19.93;;;10.40;;
23506;SDS011;11930;53.076;18.250;2024-01-30T11:35:39;21.23;;;11.20;;
23506;SDS011;11930;53.076;18.250;2024-01-30T11:38:07;18.80;;;9.87;;
23506;SDS011;11930;53.076;18.250;2024-01-30T11:40:36;30.27;;;14.13;;
23506;SDS011;11930;53.076;18.250;2024-01-30T11:43:04;75.03;;;39.90;;
23506;SDS011;11930;53.076;18.250;2024-01-30T11:45:31;41.47;;;25.47;;
23506;SDS011;11930;53.076;18.250;2024-01-30T11:47:59;29.80;;;18.30;;
23506;SDS011;11930;53.076;18.250;2024-01-30T11:50:27;22.43;;;12.67;;
23506;SDS011;11930;53.076;18.250;2024-01-30T11:52:54;25.93;;;13.50;;
23506;SDS011;11930;53.076;18.250;2024-01-30T11:55:21;32.63;;;17.33;;
23506;SDS011;11930;53.076;18.250;2024-01-30T11:57:48;48.20;;;26.13;;
23506;SDS011;11930;53.076;18.250;2024-01-30T12:00:15;42.07;;;19.13;;
23506;SDS011;11930;53.076;18.250;2024-01-30T12:02:43;30.93;;;17.90;;
23506;SDS011;11930;53.076;18.250;2024-01-30T12:05:14;23.93;;;11.97;;
23506;SDS011;11930;53.076;18.250;2024-01-30T12:07:43;22.43;;;12.27;;
23506;SDS011;11930;53.076;18.250;2024-01-30T12:10:10;25.47;;;13.53;;
23506;SDS011;11930;53.076;18.250;2024-01-30T12:12:36;25.50;;;14.07;;
23506;SDS011;11930;53.076;18.250;2024-01-30T12:15:04;24.87;;;14.07;;
23506;SDS011;11930;53.076;18.250;2024-01-30T12:17:32;20.03;;;11.67;;
23506;SDS011;11930;53.076;18.250;2024-01-30T12:22:29;23.87;;;11.40;;
23506;SDS011;11930;53.076;18.250;2024-01-30T12:24:56;22.47;;;10.73;;
23506;SDS011;11930;53.076;18.250;2024-01-30T12:27:23;21.10;;;11.23;;
23506;SDS011;11930;53.076;18.250;2024-01-30T12:29:55;27.87;;;12.63;;
23506;SDS011;11930;53.076;18.250;2024-01-30T12:32:22;21.70;;;11.73;;
23506;SDS011;11930;53.076;18.250;2024-01-30T12:34:49;21.17;;;11.67;;
23506;SDS011;11930;53.076;18.250;2024-01-30T12:37:15;26.90;;;13.60;;
23506;SDS011;11930;53.076;18.250;2024-01-30T12:39:48;40.43;;;18.20;;
23506;SDS011;11930;53.076;18.250;2024-01-30T12:42:14;80.37;;;36.00;;
23506;SDS011;11930;53.076;18.250;2024-01-30T12:44:41;44.67;;;21.83;;
23506;SDS011;11930;53.076;18.250;2024-01-30T12:47:10;55.33;;;24.57;;
23506;SDS011;11930;53.076;18.250;2024-01-30T12:49:36;67.67;;;30.90;;
23506;SDS011;11930;53.076;18.250;2024-01-30T12:52:02;59.27;;;30.07;;
23506;SDS011;11930;53.076;18.250;2024-01-30T12:54:29;64.80;;;33.40;;
23506;SDS011;11930;53.076;18.250;2024-01-30T12:56:55;53.70;;;26.30;;
23506;SDS011;11930;53.076;18.250;2024-01-30T12:59:22;56.83;;;28.30;;
23506;SDS011;11930;53.076;18.250;2024-01-30T13:01:48;38.63;;;18.93;;
23506;SDS011;11930;53.076;18.250;2024-01-30T13:04:15;40.70;;;18.60;;
23506;SDS011;11930;53.076;18.250;2024-01-30T13:06:41;30.27;;;14.63;;
23506;SDS011;11930;53.076;18.250;2024-01-30T13:09:08;49.90;;;24.47;;
23506;SDS011;11930;53.076;18.250;2024-01-30T13:11:34;32.83;;;18.00;;
23506;SDS011;11930;53.076;18.250;2024-01-30T13:14:01;39.50;;;21.10;;
23506;SDS011;11930;53.076;18.250;2024-01-30T13:16:28;29.63;;;14.43;;
23506;SDS011;11930;53.076;18.250;2024-01-30T13:18:55;24.10;;;13.93;;
23506;SDS011;11930;53.076;18.250;2024-01-30T13:21:21;23.53;;;12.70;;
23506;SDS011;11930;53.076;18.250;2024-01-30T13:23:47;26.33;;;14.57;;
23506;SDS011;11930;53.076;18.250;2024-01-30T13:26:14;30.70;;;16.00;;
23506;SDS011;11930;53.076;18.250;2024-01-30T13:28:40;30.03;;;13.73;;
23506;SDS011;11930;53.076;18.250;2024-01-30T13:31:09;37.83;;;18.47;;
23506;SDS011;11930;53.076;18.250;2024-01-30T13:33:36;24.67;;;13.27;;
23506;SDS011;11930;53.076;18.250;2024-01-30T13:36:02;28.33;;;13.13;;
23506;SDS011;11930;53.076;18.250;2024-01-30T13:38:28;28.83;;;15.13;;
23506;SDS011;11930;53.076;18.250;2024-01-30T13:40:55;24.63;;;13.10;;
23506;SDS011;11930;53.076;18.250;2024-01-30T13:43:21;31.53;;;18.30;;
23506;SDS011;11930;53.076;18.250;2024-01-30T13:45:47;63.53;;;31.23;;
23506;SDS011;11930;53.076;18.250;2024-01-30T13:48:14;40.30;;;22.67;;
23506;SDS011;11930;53.076;18.250;2024-01-30T13:50:40;26.13;;;14.27;;
23506;SDS011;11930;53.076;18.250;2024-01-30T13:53:06;29.83;;;16.80;;
23506;SDS011;11930;53.076;18.250;2024-01-30T13:55:32;37.87;;;21.40;;
23506;SDS011;11930;53.076;18.250;2024-01-30T13:58:00;44.03;;;22.10;;
23506;SDS011;11930;53.076;18.250;2024-01-30T14:00:29;40.53;;;20.87;;
23506;SDS011;11930;53.076;18.250;2024-01-30T14:02:55;40.73;;;21.30;;
23506;SDS011;11930;53.076;18.250;2024-01-30T14:05:23;34.80;;;19.43;;
23506;SDS011;11930;53.076;18.250;2024-01-30T14:07:51;42.30;;;20.73;;
23506;SDS011;11930;53.076;18.250;2024-01-30T14:10:17;53.80;;;28.00;;
23506;SDS011;11930;53.076;18.250;2024-01-30T14:12:44;56.67;;;30.43;;
23506;SDS011;11930;53.076;18.250;2024-01-30T14:15:10;39.57;;;19.67;;